sensor_id;sensor_type;location;lat;lon;timestamp;pressure;altitude;pressure_sealevel;temperature
68743;BMP180;55725;42.758;26.702;2022-08-02T00:00:15;98900.00;;;18.40
68743;BMP180;55725;42.758;26.702;2022-08-02T00:01:55;98917.00;;;18.60
68743;BMP180;55725;42.758;26.702;2022-08-02T00:03:35;98913.00;;;18.60
68743;BMP180;55725;42.758;26.702;2022-08-02T00:05:16;98912.00;;;17.80
68743;BMP180;55725;42.758;26.702;2022-08-02T00:06:56;98917.00;;;17.90
68743;BMP180;55725;42.758;26.702;2022-08-02T00:08:36;98909.00;;;18.00
68743;BMP180;55725;42.758;26.702;2022-08-02T00:10:17;98908.00;;;17.90
68743;BMP180;55725;42.758;26.702;2022-08-02T00:11:57;98915.00;;;17.50
68743;BMP180;55725;42.758;26.702;2022-08-02T00:13:37;98905.00;;;17.70
68743;BMP180;55725;42.758;26.702;2022-08-02T00:15:18;98911.00;;;18.40
68743;BMP180;55725;42.758;26.702;2022-08-02T00:16:58;98906.00;;;18.40
68743;BMP180;55725;42.758;26.702;2022-08-02T00:18:39;98910.00;;;18.40
68743;BMP180;55725;42.758;26.702;2022-08-02T00:20:19;98907.00;;;18.20
68743;BMP180;55725;42.758;26.702;2022-08-02T00:21:59;98902.00;;;18.30
68743;BMP180;55725;42.758;26.702;2022-08-02T00:23:40;98897.00;;;18.50
68743;BMP180;55725;42.758;26.702;2022-08-02T00:25:20;98898.00;;;18.40
68743;BMP180;55725;42.758;26.702;2022-08-02T00:27:00;98908.00;;;18.20
68743;BMP180;55725;42.758;26.702;2022-08-02T00:28:42;98907.00;;;18.30
68743;BMP180;55725;42.758;26.702;2022-08-02T00:30:23;98906.00;;;18.80
68743;BMP180;55725;42.758;26.702;2022-08-02T00:32:03;98894.00;;;18.90
68743;BMP180;55725;42.758;26.702;2022-08-02T00:33:44;98902.00;;;18.70
68743;BMP180;55725;42.758;26.702;2022-08-02T00:35:24;98906.00;;;18.80
68743;BMP180;55725;42.758;26.702;2022-08-02T00:37:04;98898.00;;;18.70
68743;BMP180;55725;42.758;26.702;2022-08-02T00:38:45;98902.00;;;18.90
68743;BMP180;55725;42.758;26.702;2022-08-02T00:40:26;98909.00;;;18.30
68743;BMP180;55725;42.758;26.702;2022-08-02T00:42:07;98900.00;;;17.90
68743;BMP180;55725;42.758;26.702;2022-08-02T00:43:48;98897.00;;;17.50
68743;BMP180;55725;42.758;26.702;2022-08-02T00:45:29;98903.00;;;18.20
68743;BMP180;55725;42.758;26.702;2022-08-02T00:47:09;98902.00;;;18.40
68743;BMP180;55725;42.758;26.702;2022-08-02T00:48:50;98901.00;;;18.60
68743;BMP180;55725;42.758;26.702;2022-08-02T00:50:30;98901.00;;;18.10
68743;BMP180;55725;42.758;26.702;2022-08-02T00:52:11;98904.00;;;18.60
68743;BMP180;55725;42.758;26.702;2022-08-02T00:53:51;98896.00;;;18.20
68743;BMP180;55725;42.758;26.702;2022-08-02T00:55:31;98899.00;;;18.50
68743;BMP180;55725;42.758;26.702;2022-08-02T00:57:12;98899.00;;;18.20
68743;BMP180;55725;42.758;26.702;2022-08-02T00:58:52;98898.00;;;18.10
68743;BMP180;55725;42.758;26.702;2022-08-02T01:00:32;98902.00;;;18.10
68743;BMP180;55725;42.758;26.702;2022-08-02T01:02:13;98904.00;;;18.20
68743;BMP180;55725;42.758;26.702;2022-08-02T01:03:53;98900.00;;;18.20
68743;BMP180;55725;42.758;26.702;2022-08-02T01:05:33;98907.00;;;18.40
68743;BMP180;55725;42.758;26.702;2022-08-02T01:07:13;98902.00;;;18.60
68743;BMP180;55725;42.758;26.702;2022-08-02T01:08:54;98910.00;;;18.40
68743;BMP180;55725;42.758;26.702;2022-08-02T01:10:35;98891.00;;;18.50
68743;BMP180;55725;42.758;26.702;2022-08-02T01:12:15;98893.00;;;18.40
68743;BMP180;55725;42.758;26.702;2022-08-02T01:13:56;98899.00;;;18.30
68743;BMP180;55725;42.758;26.702;2022-08-02T01:15:39;98901.00;;;18.30
68743;BMP180;55725;42.758;26.702;2022-08-02T01:26:50;98890.00;;;18.60
68743;BMP180;55725;42.758;26.702;2022-08-02T01:30:14;98889.00;;;18.60
68743;BMP180;55725;42.758;26.702;2022-08-02T01:32:00;98901.00;;;18.30
68743;BMP180;55725;42.758;26.702;2022-08-02T01:33:51;98894.00;;;18.50
68743;BMP180;55725;42.758;26.702;2022-08-02T01:35:35;98895.00;;;17.80
68743;BMP180;55725;42.758;26.702;2022-08-02T01:39:16;98899.00;;;18.10
68743;BMP180;55725;42.758;26.702;2022-08-02T01:40:58;98895.00;;;17.90
68743;BMP180;55725;42.758;26.702;2022-08-02T01:42:42;98903.00;;;18.20
68743;BMP180;55725;42.758;26.702;2022-08-02T01:44:25;98893.00;;;18.50
68743;BMP180;55725;42.758;26.702;2022-08-02T01:46:07;98900.00;;;18.20
68743;BMP180;55725;42.758;26.702;2022-08-02T01:47:48;98898.00;;;18.40
68743;BMP180;55725;42.758;26.702;2022-08-02T01:49:29;98895.00;;;18.50
68743;BMP180;55725;42.758;26.702;2022-08-02T01:51:12;98899.00;;;18.40
68743;BMP180;55725;42.758;26.702;2022-08-02T01:52:53;98912.00;;;18.00
68743;BMP180;55725;42.758;26.702;2022-08-02T01:54:34;98900.00;;;18.20
68743;BMP180;55725;42.758;26.702;2022-08-02T01:56:15;98902.00;;;18.30
68743;BMP180;55725;42.758;26.702;2022-08-02T01:57:57;98895.00;;;18.50
68743;BMP180;55725;42.758;26.702;2022-08-02T01:59:38;98902.00;;;18.20
68743;BMP180;55725;42.758;26.702;2022-08-02T02:01:19;98898.00;;;18.10
68743;BMP180;55725;42.758;26.702;2022-08-02T02:03:00;98893.00;;;18.50
68743;BMP180;55725;42.758;26.702;2022-08-02T02:04:42;98889.00;;;18.60
68743;BMP180;55725;42.758;26.702;2022-08-02T02:06:22;98884.00;;;18.90
68743;BMP180;55725;42.758;26.702;2022-08-02T02:08:03;98883.00;;;19.30
68743;BMP180;55725;42.758;26.702;2022-08-02T02:09:44;98889.00;;;19.80
68743;BMP180;55725;42.758;26.702;2022-08-02T02:11:25;98892.00;;;20.00
68743;BMP180;55725;42.758;26.702;2022-08-02T02:13:11;98893.00;;;19.90
68743;BMP180;55725;42.758;26.702;2022-08-02T02:14:53;98890.00;;;19.90
68743;BMP180;55725;42.758;26.702;2022-08-02T02:16:33;98881.00;;;20.00
68743;BMP180;55725;42.758;26.702;2022-08-02T02:18:20;98884.00;;;20.00
68743;BMP180;55725;42.758;26.702;2022-08-02T02:20:02;98887.00;;;20.20
68743;BMP180;55725;42.758;26.702;2022-08-02T02:21:43;98893.00;;;18.90
68743;BMP180;55725;42.758;26.702;2022-08-02T02:23:23;98900.00;;;17.80
68743;BMP180;55725;42.758;26.702;2022-08-02T02:25:04;98892.00;;;17.50
68743;BMP180;55725;42.758;26.702;2022-08-02T02:26:44;98904.00;;;17.90
68743;BMP180;55725;42.758;26.702;2022-08-02T02:28:26;98902.00;;;18.20
68743;BMP180;55725;42.758;26.702;2022-08-02T02:30:09;98893.00;;;17.90
68743;BMP180;55725;42.758;26.702;2022-08-02T02:31:50;98905.00;;;18.80
68743;BMP180;55725;42.758;26.702;2022-08-02T02:33:32;98895.00;;;18.90
68743;BMP180;55725;42.758;26.702;2022-08-02T02:35:15;98897.00;;;18.70
68743;BMP180;55725;42.758;26.702;2022-08-02T02:36:57;98895.00;;;19.30
68743;BMP180;55725;42.758;26.702;2022-08-02T02:38:38;98896.00;;;19.50
68743;BMP180;55725;42.758;26.702;2022-08-02T02:40:19;98898.00;;;19.40
68743;BMP180;55725;42.758;26.702;2022-08-02T02:42:00;98903.00;;;19.80
68743;BMP180;55725;42.758;26.702;2022-08-02T02:43:42;98906.00;;;20.00
68743;BMP180;55725;42.758;26.702;2022-08-02T02:45:22;98901.00;;;19.90
68743;BMP180;55725;42.758;26.702;2022-08-02T02:47:03;98906.00;;;19.30
68743;BMP180;55725;42.758;26.702;2022-08-02T02:48:44;98906.00;;;19.50
68743;BMP180;55725;42.758;26.702;2022-08-02T02:50:24;98910.00;;;19.30
68743;BMP180;55725;42.758;26.702;2022-08-02T02:52:05;98915.00;;;19.80
68743;BMP180;55725;42.758;26.702;2022-08-02T02:53:47;98916.00;;;19.50
68743;BMP180;55725;42.758;26.702;2022-08-02T02:55:29;98921.00;;;19.40
68743;BMP180;55725;42.758;26.702;2022-08-02T02:57:10;98919.00;;;19.20
68743;BMP180;55725;42.758;26.702;2022-08-02T02:58:50;98925.00;;;19.30
68743;BMP180;55725;42.758;26.702;2022-08-02T03:00:33;98930.00;;;18.90
68743;BMP180;55725;42.758;26.702;2022-08-02T03:02:32;98920.00;;;19.20
68743;BMP180;55725;42.758;26.702;2022-08-02T03:04:13;98921.00;;;19.50
68743;BMP180;55725;42.758;26.702;2022-08-02T03:05:54;98928.00;;;19.10
68743;BMP180;55725;42.758;26.702;2022-08-02T03:07:35;98922.00;;;19.20
68743;BMP180;55725;42.758;26.702;2022-08-02T03:09:15;98936.00;;;19.10
68743;BMP180;55725;42.758;26.702;2022-08-02T03:10:55;98932.00;;;19.10
68743;BMP180;55725;42.758;26.702;2022-08-02T03:12:36;98928.00;;;19.20
68743;BMP180;55725;42.758;26.702;2022-08-02T03:14:17;98936.00;;;19.00
68743;BMP180;55725;42.758;26.702;2022-08-02T03:15:57;98932.00;;;18.90
68743;BMP180;55725;42.758;26.702;2022-08-02T03:17:42;98933.00;;;19.50
68743;BMP180;55725;42.758;26.702;2022-08-02T03:19:23;98929.00;;;19.20
68743;BMP180;55725;42.758;26.702;2022-08-02T03:21:04;98923.00;;;19.50
68743;BMP180;55725;42.758;26.702;2022-08-02T03:22:45;98928.00;;;19.40
68743;BMP180;55725;42.758;26.702;2022-08-02T03:24:26;98925.00;;;19.80
68743;BMP180;55725;42.758;26.702;2022-08-02T03:26:06;98921.00;;;19.90
68743;BMP180;55725;42.758;26.702;2022-08-02T03:27:47;98920.00;;;20.20
68743;BMP180;55725;42.758;26.702;2022-08-02T03:29:27;98922.00;;;20.30
68743;BMP180;55725;42.758;26.702;2022-08-02T03:31:07;98923.00;;;20.30
68743;BMP180;55725;42.758;26.702;2022-08-02T03:32:48;98920.00;;;20.40
68743;BMP180;55725;42.758;26.702;2022-08-02T03:34:29;98924.00;;;20.50
68743;BMP180;55725;42.758;26.702;2022-08-02T03:36:13;98920.00;;;20.50
68743;BMP180;55725;42.758;26.702;2022-08-02T03:37:54;98916.00;;;20.60
68743;BMP180;55725;42.758;26.702;2022-08-02T03:39:35;98932.00;;;20.60
68743;BMP180;55725;42.758;26.702;2022-08-02T03:41:16;98928.00;;;20.60
68743;BMP180;55725;42.758;26.702;2022-08-02T03:42:57;98925.00;;;20.70
68743;BMP180;55725;42.758;26.702;2022-08-02T03:44:38;98926.00;;;20.80
68743;BMP180;55725;42.758;26.702;2022-08-02T03:46:19;98924.00;;;20.80
68743;BMP180;55725;42.758;26.702;2022-08-02T03:48:00;98936.00;;;20.90
68743;BMP180;55725;42.758;26.702;2022-08-02T03:49:42;98933.00;;;20.80
68743;BMP180;55725;42.758;26.702;2022-08-02T03:51:23;98936.00;;;21.00
68743;BMP180;55725;42.758;26.702;2022-08-02T03:53:03;98938.00;;;21.00
68743;BMP180;55725;42.758;26.702;2022-08-02T03:54:44;98946.00;;;21.00
68743;BMP180;55725;42.758;26.702;2022-08-02T03:56:24;98941.00;;;21.40
68743;BMP180;55725;42.758;26.702;2022-08-02T03:58:04;98952.00;;;21.30
68743;BMP180;55725;42.758;26.702;2022-08-02T03:59:45;98953.00;;;21.60
68743;BMP180;55725;42.758;26.702;2022-08-02T04:01:26;98955.00;;;21.40
68743;BMP180;55725;42.758;26.702;2022-08-02T04:03:06;98961.00;;;21.70
68743;BMP180;55725;42.758;26.702;2022-08-02T04:04:46;98968.00;;;22.00
68743;BMP180;55725;42.758;26.702;2022-08-02T04:06:27;98968.00;;;22.00
68743;BMP180;55725;42.758;26.702;2022-08-02T04:08:07;98971.00;;;22.10
68743;BMP180;55725;42.758;26.702;2022-08-02T04:09:47;98977.00;;;21.90
68743;BMP180;55725;42.758;26.702;2022-08-02T04:11:28;98976.00;;;21.80
68743;BMP180;55725;42.758;26.702;2022-08-02T04:13:11;98981.00;;;21.60
68743;BMP180;55725;42.758;26.702;2022-08-02T04:14:51;98980.00;;;21.80
68743;BMP180;55725;42.758;26.702;2022-08-02T04:18:12;98972.00;;;21.60
68743;BMP180;55725;42.758;26.702;2022-08-02T04:19:54;98976.00;;;21.70
68743;BMP180;55725;42.758;26.702;2022-08-02T04:21:36;98969.00;;;21.50
68743;BMP180;55725;42.758;26.702;2022-08-02T04:23:17;98971.00;;;21.80
68743;BMP180;55725;42.758;26.702;2022-08-02T04:24:58;98973.00;;;21.70
68743;BMP180;55725;42.758;26.702;2022-08-02T04:26:42;98975.00;;;22.00
68743;BMP180;55725;42.758;26.702;2022-08-02T04:28:23;98973.00;;;21.90
68743;BMP180;55725;42.758;26.702;2022-08-02T04:30:04;98970.00;;;21.70
68743;BMP180;55725;42.758;26.702;2022-08-02T04:31:45;98969.00;;;21.90
68743;BMP180;55725;42.758;26.702;2022-08-02T04:33:25;98978.00;;;21.80
68743;BMP180;55725;42.758;26.702;2022-08-02T04:35:06;98980.00;;;22.10
68743;BMP180;55725;42.758;26.702;2022-08-02T04:36:47;98976.00;;;21.80
68743;BMP180;55725;42.758;26.702;2022-08-02T04:38:27;98971.00;;;21.80
68743;BMP180;55725;42.758;26.702;2022-08-02T04:40:08;98974.00;;;22.00
68743;BMP180;55725;42.758;26.702;2022-08-02T04:41:49;98970.00;;;22.10
68743;BMP180;55725;42.758;26.702;2022-08-02T04:43:30;98968.00;;;22.40
68743;BMP180;55725;42.758;26.702;2022-08-02T04:45:10;98965.00;;;22.20
68743;BMP180;55725;42.758;26.702;2022-08-02T04:46:51;98972.00;;;22.10
68743;BMP180;55725;42.758;26.702;2022-08-02T04:48:31;98970.00;;;22.10
68743;BMP180;55725;42.758;26.702;2022-08-02T04:50:12;98978.00;;;22.30
68743;BMP180;55725;42.758;26.702;2022-08-02T04:51:52;98974.00;;;22.50
68743;BMP180;55725;42.758;26.702;2022-08-02T04:53:33;98972.00;;;22.40
68743;BMP180;55725;42.758;26.702;2022-08-02T04:55:14;98975.00;;;22.30
68743;BMP180;55725;42.758;26.702;2022-08-02T04:56:54;98979.00;;;22.20
68743;BMP180;55725;42.758;26.702;2022-08-02T04:58:34;98983.00;;;22.30
68743;BMP180;55725;42.758;26.702;2022-08-02T05:00:15;98984.00;;;22.60
68743;BMP180;55725;42.758;26.702;2022-08-02T05:01:55;98978.00;;;22.70
68743;BMP180;55725;42.758;26.702;2022-08-02T05:03:35;98976.00;;;22.90
68743;BMP180;55725;42.758;26.702;2022-08-02T05:05:16;98972.00;;;22.90
68743;BMP180;55725;42.758;26.702;2022-08-02T05:06:56;98971.00;;;23.00
68743;BMP180;55725;42.758;26.702;2022-08-02T05:08:36;98974.00;;;23.00
68743;BMP180;55725;42.758;26.702;2022-08-02T05:10:17;98980.00;;;23.10
68743;BMP180;55725;42.758;26.702;2022-08-02T05:11:57;98978.00;;;23.00
68743;BMP180;55725;42.758;26.702;2022-08-02T05:13:39;98986.00;;;23.00
68743;BMP180;55725;42.758;26.702;2022-08-02T05:15:19;98979.00;;;22.90
68743;BMP180;55725;42.758;26.702;2022-08-02T05:17:00;98986.00;;;23.00
68743;BMP180;55725;42.758;26.702;2022-08-02T05:18:40;98984.00;;;22.90
68743;BMP180;55725;42.758;26.702;2022-08-02T05:20:20;98982.00;;;23.00
68743;BMP180;55725;42.758;26.702;2022-08-02T05:22:01;98981.00;;;23.30
68743;BMP180;55725;42.758;26.702;2022-08-02T05:23:41;98983.00;;;23.50
68743;BMP180;55725;42.758;26.702;2022-08-02T05:25:21;98968.00;;;23.50
68743;BMP180;55725;42.758;26.702;2022-08-02T05:27:01;98970.00;;;23.70
68743;BMP180;55725;42.758;26.702;2022-08-02T05:28:42;98966.00;;;23.70
68743;BMP180;55725;42.758;26.702;2022-08-02T05:30:22;98975.00;;;24.00
68743;BMP180;55725;42.758;26.702;2022-08-02T05:32:03;98975.00;;;24.20
68743;BMP180;55725;42.758;26.702;2022-08-02T05:33:43;98987.00;;;24.30
68743;BMP180;55725;42.758;26.702;2022-08-02T05:35:23;98977.00;;;24.30
68743;BMP180;55725;42.758;26.702;2022-08-02T05:37:04;98970.00;;;24.20
68743;BMP180;55725;42.758;26.702;2022-08-02T05:38:44;98977.00;;;24.10
68743;BMP180;55725;42.758;26.702;2022-08-02T05:40:24;98982.00;;;24.20
68743;BMP180;55725;42.758;26.702;2022-08-02T05:42:04;98976.00;;;24.20
68743;BMP180;55725;42.758;26.702;2022-08-02T05:43:45;98983.00;;;24.50
68743;BMP180;55725;42.758;26.702;2022-08-02T05:45:26;98983.00;;;24.40
68743;BMP180;55725;42.758;26.702;2022-08-02T05:47:07;98982.00;;;24.50
68743;BMP180;55725;42.758;26.702;2022-08-02T05:48:47;98985.00;;;24.70
68743;BMP180;55725;42.758;26.702;2022-08-02T05:50:27;98981.00;;;24.70
68743;BMP180;55725;42.758;26.702;2022-08-02T05:52:10;98980.00;;;24.80
68743;BMP180;55725;42.758;26.702;2022-08-02T05:54:01;98983.00;;;24.90
68743;BMP180;55725;42.758;26.702;2022-08-02T05:55:51;98983.00;;;24.70
68743;BMP180;55725;42.758;26.702;2022-08-02T05:57:47;98998.00;;;24.90
68743;BMP180;55725;42.758;26.702;2022-08-02T06:01:26;98989.00;;;24.80
68743;BMP180;55725;42.758;26.702;2022-08-02T06:05:12;98981.00;;;25.00
68743;BMP180;55725;42.758;26.702;2022-08-02T06:06:54;98988.00;;;25.00
68743;BMP180;55725;42.758;26.702;2022-08-02T06:08:38;98987.00;;;25.10
68743;BMP180;55725;42.758;26.702;2022-08-02T06:10:21;98987.00;;;25.20
68743;BMP180;55725;42.758;26.702;2022-08-02T06:12:01;98990.00;;;25.50
68743;BMP180;55725;42.758;26.702;2022-08-02T06:13:42;98984.00;;;25.40
68743;BMP180;55725;42.758;26.702;2022-08-02T06:15:22;98987.00;;;25.50
68743;BMP180;55725;42.758;26.702;2022-08-02T06:17:03;98988.00;;;25.60
68743;BMP180;55725;42.758;26.702;2022-08-02T06:18:44;98987.00;;;25.40
68743;BMP180;55725;42.758;26.702;2022-08-02T06:20:24;98989.00;;;25.50
68743;BMP180;55725;42.758;26.702;2022-08-02T06:22:05;98997.00;;;25.80
68743;BMP180;55725;42.758;26.702;2022-08-02T06:23:55;98997.00;;;25.50
68743;BMP180;55725;42.758;26.702;2022-08-02T06:25:37;98986.00;;;25.80
68743;BMP180;55725;42.758;26.702;2022-08-02T06:27:19;98993.00;;;25.80
68743;BMP180;55725;42.758;26.702;2022-08-02T06:29:00;98991.00;;;25.90
68743;BMP180;55725;42.758;26.702;2022-08-02T06:30:40;99012.00;;;26.00
68743;BMP180;55725;42.758;26.702;2022-08-02T06:32:22;98990.00;;;26.20
68743;BMP180;55725;42.758;26.702;2022-08-02T06:34:03;98978.00;;;26.00
68743;BMP180;55725;42.758;26.702;2022-08-02T06:35:44;98991.00;;;26.00
68743;BMP180;55725;42.758;26.702;2022-08-02T06:37:36;99016.00;;;25.50
68743;BMP180;55725;42.758;26.702;2022-08-02T06:39:26;99025.00;;;25.30
68743;BMP180;55725;42.758;26.702;2022-08-02T06:41:11;99044.00;;;25.00
68743;BMP180;55725;42.758;26.702;2022-08-02T06:44:52;99029.00;;;24.30
68743;BMP180;55725;42.758;26.702;2022-08-02T06:46:32;98991.00;;;24.40
68743;BMP180;55725;42.758;26.702;2022-08-02T06:48:13;99029.00;;;24.80
68743;BMP180;55725;42.758;26.702;2022-08-02T06:49:54;98979.00;;;24.70
68743;BMP180;55725;42.758;26.702;2022-08-02T06:51:34;99031.00;;;25.40
68743;BMP180;55725;42.758;26.702;2022-08-02T06:53:15;99028.00;;;25.20
68743;BMP180;55725;42.758;26.702;2022-08-02T06:54:56;98992.00;;;25.40
68743;BMP180;55725;42.758;26.702;2022-08-02T06:56:36;99039.00;;;26.10
68743;BMP180;55725;42.758;26.702;2022-08-02T06:58:16;99050.00;;;25.20
68743;BMP180;55725;42.758;26.702;2022-08-02T06:59:57;99037.00;;;25.70
68743;BMP180;55725;42.758;26.702;2022-08-02T07:01:40;99035.00;;;25.40
68743;BMP180;55725;42.758;26.702;2022-08-02T07:03:20;98989.00;;;25.40
68743;BMP180;55725;42.758;26.702;2022-08-02T07:05:00;98992.00;;;26.20
68743;BMP180;55725;42.758;26.702;2022-08-02T07:06:41;98992.00;;;26.60
68743;BMP180;55725;42.758;26.702;2022-08-02T07:08:21;98991.00;;;26.90
68743;BMP180;55725;42.758;26.702;2022-08-02T07:10:02;98988.00;;;26.90
68743;BMP180;55725;42.758;26.702;2022-08-02T07:11:43;98995.00;;;27.20
68743;BMP180;55725;42.758;26.702;2022-08-02T07:13:23;98982.00;;;27.40
68743;BMP180;55725;42.758;26.702;2022-08-02T07:15:04;98986.00;;;27.40
68743;BMP180;55725;42.758;26.702;2022-08-02T07:16:45;98986.00;;;27.30
68743;BMP180;55725;42.758;26.702;2022-08-02T07:18:25;98998.00;;;27.00
68743;BMP180;55725;42.758;26.702;2022-08-02T07:20:06;98994.00;;;27.00
68743;BMP180;55725;42.758;26.702;2022-08-02T07:21:47;98990.00;;;27.30
68743;BMP180;55725;42.758;26.702;2022-08-02T07:23:27;98985.00;;;27.20
68743;BMP180;55725;42.758;26.702;2022-08-02T07:25:07;98981.00;;;27.70
68743;BMP180;55725;42.758;26.702;2022-08-02T07:26:48;98985.00;;;27.60
68743;BMP180;55725;42.758;26.702;2022-08-02T07:28:28;98980.00;;;27.30
68743;BMP180;55725;42.758;26.702;2022-08-02T07:30:09;98990.00;;;27.40
68743;BMP180;55725;42.758;26.702;2022-08-02T07:31:49;98985.00;;;27.40
68743;BMP180;55725;42.758;26.702;2022-08-02T07:33:30;98980.00;;;27.60
68743;BMP180;55725;42.758;26.702;2022-08-02T07:35:10;98976.00;;;27.40
68743;BMP180;55725;42.758;26.702;2022-08-02T07:36:51;98981.00;;;27.50
68743;BMP180;55725;42.758;26.702;2022-08-02T07:38:31;98983.00;;;27.70
68743;BMP180;55725;42.758;26.702;2022-08-02T07:40:12;98980.00;;;27.50
68743;BMP180;55725;42.758;26.702;2022-08-02T07:41:52;98981.00;;;27.50
68743;BMP180;55725;42.758;26.702;2022-08-02T07:43:33;98981.00;;;27.90
68743;BMP180;55725;42.758;26.702;2022-08-02T07:45:13;98987.00;;;28.10
68743;BMP180;55725;42.758;26.702;2022-08-02T07:46:53;98988.00;;;28.10
68743;BMP180;55725;42.758;26.702;2022-08-02T07:48:34;98980.00;;;27.30
68743;BMP180;55725;42.758;26.702;2022-08-02T07:50:14;98983.00;;;28.20
68743;BMP180;55725;42.758;26.702;2022-08-02T07:51:55;98973.00;;;28.30
68743;BMP180;55725;42.758;26.702;2022-08-02T07:53:36;98967.00;;;28.30
68743;BMP180;55725;42.758;26.702;2022-08-02T07:55:16;98978.00;;;28.60
68743;BMP180;55725;42.758;26.702;2022-08-02T07:56:57;98972.00;;;28.50
68743;BMP180;55725;42.758;26.702;2022-08-02T07:58:37;98974.00;;;28.60
68743;BMP180;55725;42.758;26.702;2022-08-02T08:00:19;98973.00;;;28.50
68743;BMP180;55725;42.758;26.702;2022-08-02T08:02:00;98969.00;;;28.20
68743;BMP180;55725;42.758;26.702;2022-08-02T08:03:40;98968.00;;;28.50
68743;BMP180;55725;42.758;26.702;2022-08-02T08:05:21;98965.00;;;28.20
68743;BMP180;55725;42.758;26.702;2022-08-02T08:07:02;98970.00;;;28.50
68743;BMP180;55725;42.758;26.702;2022-08-02T08:08:45;98967.00;;;28.40
68743;BMP180;55725;42.758;26.702;2022-08-02T08:10:25;98951.00;;;28.40
68743;BMP180;55725;42.758;26.702;2022-08-02T08:12:06;98963.00;;;27.80
68743;BMP180;55725;42.758;26.702;2022-08-02T08:13:46;98951.00;;;28.10
68743;BMP180;55725;42.758;26.702;2022-08-02T08:15:26;98956.00;;;28.70
68743;BMP180;55725;42.758;26.702;2022-08-02T08:17:07;98954.00;;;28.10
68743;BMP180;55725;42.758;26.702;2022-08-02T08:18:47;98962.00;;;28.60
68743;BMP180;55725;42.758;26.702;2022-08-02T08:20:27;98958.00;;;28.50
68743;BMP180;55725;42.758;26.702;2022-08-02T08:22:08;98957.00;;;28.90
68743;BMP180;55725;42.758;26.702;2022-08-02T08:23:48;98961.00;;;29.80
68743;BMP180;55725;42.758;26.702;2022-08-02T08:25:29;98956.00;;;29.20
68743;BMP180;55725;42.758;26.702;2022-08-02T08:27:09;98949.00;;;29.40
68743;BMP180;55725;42.758;26.702;2022-08-02T08:28:53;98957.00;;;29.60
68743;BMP180;55725;42.758;26.702;2022-08-02T08:30:33;98958.00;;;29.70
68743;BMP180;55725;42.758;26.702;2022-08-02T08:32:14;98950.00;;;30.00
68743;BMP180;55725;42.758;26.702;2022-08-02T08:33:54;98954.00;;;30.00
68743;BMP180;55725;42.758;26.702;2022-08-02T08:35:35;98944.00;;;30.30
68743;BMP180;55725;42.758;26.702;2022-08-02T08:37:16;98945.00;;;29.40
68743;BMP180;55725;42.758;26.702;2022-08-02T08:38:56;98949.00;;;30.30
68743;BMP180;55725;42.758;26.702;2022-08-02T08:40:36;98948.00;;;29.90
68743;BMP180;55725;42.758;26.702;2022-08-02T08:42:17;98941.00;;;29.80
68743;BMP180;55725;42.758;26.702;2022-08-02T08:43:58;98942.00;;;29.60
68743;BMP180;55725;42.758;26.702;2022-08-02T08:45:42;98934.00;;;29.50
68743;BMP180;55725;42.758;26.702;2022-08-02T08:47:23;98934.00;;;30.20
68743;BMP180;55725;42.758;26.702;2022-08-02T08:49:21;98936.00;;;30.40
68743;BMP180;55725;42.758;26.702;2022-08-02T08:51:15;98930.00;;;29.30
68743;BMP180;55725;42.758;26.702;2022-08-02T08:53:03;98937.00;;;30.40
68743;BMP180;55725;42.758;26.702;2022-08-02T08:54:43;99011.00;;;30.20
68743;BMP180;55725;42.758;26.702;2022-08-02T08:56:27;98929.00;;;29.00
68743;BMP180;55725;42.758;26.702;2022-08-02T08:58:08;98927.00;;;30.20
68743;BMP180;55725;42.758;26.702;2022-08-02T08:59:50;98925.00;;;29.90
68743;BMP180;55725;42.758;26.702;2022-08-02T09:01:30;99002.00;;;29.70
68743;BMP180;55725;42.758;26.702;2022-08-02T09:03:11;98917.00;;;29.60
68743;BMP180;55725;42.758;26.702;2022-08-02T09:04:51;98932.00;;;30.70
68743;BMP180;55725;42.758;26.702;2022-08-02T09:06:32;98929.00;;;30.20
68743;BMP180;55725;42.758;26.702;2022-08-02T09:08:12;98929.00;;;30.70
68743;BMP180;55725;42.758;26.702;2022-08-02T09:09:53;98920.00;;;29.40
68743;BMP180;55725;42.758;26.702;2022-08-02T09:11:33;98992.00;;;28.40
68743;BMP180;55725;42.758;26.702;2022-08-02T09:13:24;98920.00;;;29.60
68743;BMP180;55725;42.758;26.702;2022-08-02T09:15:09;98989.00;;;30.30
68743;BMP180;55725;42.758;26.702;2022-08-02T09:16:50;99006.00;;;28.60
68743;BMP180;55725;42.758;26.702;2022-08-02T09:20:10;98953.00;;;30.20
68743;BMP180;55725;42.758;26.702;2022-08-02T09:21:59;98991.00;;;30.50
68743;BMP180;55725;42.758;26.702;2022-08-02T09:23:40;98997.00;;;28.60
68743;BMP180;55725;42.758;26.702;2022-08-02T09:25:21;98916.00;;;29.00
68743;BMP180;55725;42.758;26.702;2022-08-02T09:27:08;98910.00;;;29.80
68743;BMP180;55725;42.758;26.702;2022-08-02T09:28:49;98903.00;;;30.10
68743;BMP180;55725;42.758;26.702;2022-08-02T09:30:30;98909.00;;;31.10
68743;BMP180;55725;42.758;26.702;2022-08-02T09:32:11;98915.00;;;31.20
68743;BMP180;55725;42.758;26.702;2022-08-02T09:33:52;98903.00;;;30.80
68743;BMP180;55725;42.758;26.702;2022-08-02T09:35:37;98899.00;;;31.00
68743;BMP180;55725;42.758;26.702;2022-08-02T09:39:05;98904.00;;;32.00
68743;BMP180;55725;42.758;26.702;2022-08-02T09:40:46;98909.00;;;32.70
68743;BMP180;55725;42.758;26.702;2022-08-02T09:42:26;98911.00;;;32.20
68743;BMP180;55725;42.758;26.702;2022-08-02T09:44:09;98902.00;;;31.50
68743;BMP180;55725;42.758;26.702;2022-08-02T09:45:50;98907.00;;;31.70
68743;BMP180;55725;42.758;26.702;2022-08-02T09:47:30;98899.00;;;32.30
68743;BMP180;55725;42.758;26.702;2022-08-02T09:49:15;98875.00;;;31.50
68743;BMP180;55725;42.758;26.702;2022-08-02T09:50:56;98888.00;;;31.00
68743;BMP180;55725;42.758;26.702;2022-08-02T09:52:36;98978.00;;;30.90
68743;BMP180;55725;42.758;26.702;2022-08-02T09:54:28;98899.00;;;32.10
68743;BMP180;55725;42.758;26.702;2022-08-02T09:56:08;98891.00;;;32.20
68743;BMP180;55725;42.758;26.702;2022-08-02T09:57:49;98893.00;;;32.30
68743;BMP180;55725;42.758;26.702;2022-08-02T09:59:29;98891.00;;;32.20